sensor_id;sensor_type;location;lat;lon;timestamp;pressure;altitude;pressure_sealevel;temperature;humidity
7018;BME280;3549;42.162;24.726;2023-06-04T00:02:02;47788.19;;;-141.97;61.51
7018;BME280;3549;42.162;24.726;2023-06-04T00:04:27;47415.28;;;-141.97;61.51
7018;BME280;3549;42.162;24.726;2023-06-04T00:06:54;47561.38;;;-141.97;61.85
7018;BME280;3549;42.162;24.726;2023-06-04T00:09:19;47734.34;;;-141.97;62.19
7018;BME280;3549;42.162;24.726;2023-06-04T00:11:45;47499.84;;;-141.97;62.03
7018;BME280;3549;42.162;24.726;2023-06-04T00:14:11;47580.59;;;-141.97;62.01
7018;BME280;3549;42.162;24.726;2023-06-04T00:16:37;47617.09;;;-141.97;62.17
7018;BME280;3549;42.162;24.726;2023-06-04T00:19:02;47599.81;;;-141.97;62.37
7018;BME280;3549;42.162;24.726;2023-06-04T00:21:28;47595.97;;;-141.97;62.18
7018;BME280;3549;42.162;24.726;2023-06-04T00:23:53;47588.28;;;-141.97;62.51
7018;BME280;3549;42.162;24.726;2023-06-04T00:26:19;47605.56;;;-141.97;62.70
7018;BME280;3549;42.162;24.726;2023-06-04T00:28:45;47730.50;;;-141.97;62.90
7018;BME280;3549;42.162;24.726;2023-06-04T00:31:10;47605.56;;;-141.97;63.01
7018;BME280;3549;42.162;24.726;2023-06-04T00:33:38;47530.59;;;-141.97;63.10
7018;BME280;3549;42.162;24.726;2023-06-04T00:36:04;47630.56;;;-141.97;63.04
7018;BME280;3549;42.162;24.726;2023-06-04T00:38:29;47588.28;;;-141.97;63.62
7018;BME280;3549;42.162;24.726;2023-06-04T00:40:55;47613.25;;;-141.97;63.79
7018;BME280;3549;42.162;24.726;2023-06-04T00:43:20;47549.84;;;-141.97;64.01
7018;BME280;3549;42.162;24.726;2023-06-04T00:45:46;47595.97;;;-141.97;64.10
7018;BME280;3549;42.162;24.726;2023-06-04T00:48:11;47546.00;;;-141.97;64.44
7018;BME280;3549;42.162;24.726;2023-06-04T00:50:37;47542.16;;;-141.97;64.39
7018;BME280;3549;42.162;24.726;2023-06-04T00:53:04;47592.13;;;-141.97;64.20
7018;BME280;3549;42.162;24.726;2023-06-04T00:55:30;47580.59;;;-141.97;63.71
7018;BME280;3549;42.162;24.726;2023-06-04T00:57:56;47815.09;;;-141.97;63.52
7018;BME280;3549;42.162;24.726;2023-06-04T01:00:22;47590.19;;;-141.97;63.71
7018;BME280;3549;42.162;24.726;2023-06-04T01:02:49;47570.97;;;-141.97;64.10
7018;BME280;3549;42.162;24.726;2023-06-04T01:07:59;47597.88;;;-141.97;63.95
7018;BME280;3549;42.162;24.726;2023-06-04T01:10:25;47580.59;;;-141.97;63.45
7018;BME280;3549;42.162;24.726;2023-06-04T01:12:50;47619.03;;;-141.97;63.45
7018;BME280;3549;42.162;24.726;2023-06-04T01:15:16;47599.81;;;-141.97;63.21
7018;BME280;3549;42.162;24.726;2023-06-04T01:17:44;47597.88;;;-141.97;63.20
7018;BME280;3549;42.162;24.726;2023-06-04T01:25:40;47615.19;;;-141.97;63.46
7018;BME280;3549;42.162;24.726;2023-06-04T01:28:12;47615.19;;;-141.97;63.64
7018;BME280;3549;42.162;24.726;2023-06-04T01:30:40;47742.03;;;-141.97;63.54
7018;BME280;3549;42.162;24.726;2023-06-04T01:33:09;47599.81;;;-141.97;63.18
7018;BME280;3549;42.162;24.726;2023-06-04T01:35:36;47578.66;;;-141.97;63.13
7018;BME280;3549;42.162;24.726;2023-06-04T01:38:02;47617.09;;;-141.97;63.27
7018;BME280;3549;42.162;24.726;2023-06-04T01:40:27;47734.34;;;-141.97;62.87
7018;BME280;3549;42.162;24.726;2023-06-04T01:42:53;47555.59;;;-141.97;62.84
7018;BME280;3549;42.162;24.726;2023-06-04T01:45:21;47570.97;;;-141.97;62.81
7018;BME280;3549;42.162;24.726;2023-06-04T01:47:46;47563.28;;;-141.97;62.80
7018;BME280;3549;42.162;24.726;2023-06-04T01:50:12;47565.22;;;-141.97;62.56
7018;BME280;3549;42.162;24.726;2023-06-04T01:52:38;47563.28;;;-141.97;62.78
7018;BME280;3549;42.162;24.726;2023-06-04T01:55:05;47609.41;;;-141.97;62.84
7018;BME280;3549;42.162;24.726;2023-06-04T01:57:33;47544.06;;;-141.97;62.55
7018;BME280;3549;42.162;24.726;2023-06-04T01:59:58;47597.88;;;-141.97;63.06
7018;BME280;3549;42.162;24.726;2023-06-04T02:02:24;47630.56;;;-141.97;62.95
7018;BME280;3549;42.162;24.726;2023-06-04T02:04:50;47569.06;;;-141.97;63.44
7018;BME280;3549;42.162;24.726;2023-06-04T02:07:18;47793.94;;;-141.97;63.76
7018;BME280;3549;42.162;24.726;2023-06-04T02:09:46;47613.25;;;-141.97;64.06
7018;BME280;3549;42.162;24.726;2023-06-04T02:12:11;47619.03;;;-141.97;63.95
7018;BME280;3549;42.162;24.726;2023-06-04T02:14:37;47607.50;;;-141.97;63.98
7018;BME280;3549;42.162;24.726;2023-06-04T02:17:03;47592.13;;;-141.97;63.66
7018;BME280;3549;42.162;24.726;2023-06-04T02:19:29;47815.09;;;-141.97;63.83
7018;BME280;3549;42.162;24.726;2023-06-04T02:21:55;47588.28;;;-141.97;64.17
7018;BME280;3549;42.162;24.726;2023-06-04T02:24:21;47557.53;;;-141.97;64.03
7018;BME280;3549;42.162;24.726;2023-06-04T02:26:47;47582.50;;;-141.97;64.21
7018;BME280;3549;42.162;24.726;2023-06-04T02:29:12;47595.97;;;-141.97;64.20
7018;BME280;3549;42.162;24.726;2023-06-04T02:31:38;47638.25;;;-141.97;63.91
7018;BME280;3549;42.162;24.726;2023-06-04T02:34:03;47628.63;;;-141.97;63.73
7018;BME280;3549;42.162;24.726;2023-06-04T02:36:29;47770.88;;;-141.97;64.09
7018;BME280;3549;42.162;24.726;2023-06-04T02:38:55;47540.22;;;-141.97;64.17
7018;BME280;3549;42.162;24.726;2023-06-04T02:41:21;47778.56;;;-141.97;64.37
7018;BME280;3549;42.162;24.726;2023-06-04T02:43:46;47611.34;;;-141.97;64.33
7018;BME280;3549;42.162;24.726;2023-06-04T02:46:12;47628.63;;;-141.97;64.23
7018;BME280;3549;42.162;24.726;2023-06-04T02:48:37;47576.75;;;-141.97;64.12
7018;BME280;3549;42.162;24.726;2023-06-04T02:51:02;47588.28;;;-141.97;64.35
7018;BME280;3549;42.162;24.726;2023-06-04T02:53:28;47590.19;;;-141.97;64.81
7018;BME280;3549;42.162;24.726;2023-06-04T02:55:53;47613.25;;;-141.97;65.67
7018;BME280;3549;42.162;24.726;2023-06-04T02:58:19;47519.06;;;-141.97;65.55
7018;BME280;3549;42.162;24.726;2023-06-04T03:00:46;47586.34;;;-141.97;65.64
7018;BME280;3549;42.162;24.726;2023-06-04T03:03:12;47611.34;;;-141.97;65.71
7018;BME280;3549;42.162;24.726;2023-06-04T03:05:37;47553.69;;;-141.97;66.00
7018;BME280;3549;42.162;24.726;2023-06-04T03:08:04;47655.53;;;-141.97;66.30
7018;BME280;3549;42.162;24.726;2023-06-04T03:10:30;47592.13;;;-141.97;66.54
7018;BME280;3549;42.162;24.726;2023-06-04T03:12:56;47607.50;;;-141.97;66.15
7018;BME280;3549;42.162;24.726;2023-06-04T03:15:21;47553.69;;;-141.97;66.24
7018;BME280;3549;42.162;24.726;2023-06-04T03:17:47;47588.28;;;-141.97;66.37
7018;BME280;3549;42.162;24.726;2023-06-04T03:20:12;47611.34;;;-141.97;65.93
7018;BME280;3549;42.162;24.726;2023-06-04T03:22:37;47576.75;;;-141.97;65.88
7018;BME280;3549;42.162;24.726;2023-06-04T03:25:03;47580.59;;;-141.97;65.25
7018;BME280;3549;42.162;24.726;2023-06-04T03:27:31;47630.56;;;-141.97;64.81
7018;BME280;3549;42.162;24.726;2023-06-04T03:29:56;47607.50;;;-141.97;64.61
7018;BME280;3549;42.162;24.726;2023-06-04T03:32:22;47601.72;;;-141.97;64.04
7018;BME280;3549;42.162;24.726;2023-06-04T03:34:47;47649.78;;;-141.97;63.99
7018;BME280;3549;42.162;24.726;2023-06-04T03:37:13;47576.75;;;-141.97;63.77
7018;BME280;3549;42.162;24.726;2023-06-04T03:39:38;47640.16;;;-141.97;64.00
7018;BME280;3549;42.162;24.726;2023-06-04T03:42:04;47734.34;;;-141.97;63.84
7018;BME280;3549;42.162;24.726;2023-06-04T03:44:30;47588.28;;;-141.97;63.56
7018;BME280;3549;42.162;24.726;2023-06-04T03:46:55;47576.75;;;-141.97;63.45
7018;BME280;3549;42.162;24.726;2023-06-04T03:49:21;47553.69;;;-141.97;63.39
7018;BME280;3549;42.162;24.726;2023-06-04T03:51:47;47586.34;;;-141.97;63.21
7018;BME280;3549;42.162;24.726;2023-06-04T03:54:14;47557.53;;;-141.97;62.67
7018;BME280;3549;42.162;24.726;2023-06-04T03:56:43;47517.16;;;-141.97;62.16
7018;BME280;3549;42.162;24.726;2023-06-04T03:59:08;47469.09;;;-141.97;62.12
7018;BME280;3549;42.162;24.726;2023-06-04T04:01:34;47615.19;;;-141.97;61.54
7018;BME280;3549;42.162;24.726;2023-06-04T04:03:59;47478.72;;;-141.97;61.29
7018;BME280;3549;42.162;24.726;2023-06-04T04:06:24;47582.50;;;-141.97;61.49
7018;BME280;3549;42.162;24.726;2023-06-04T04:08:50;47584.44;;;-141.97;60.93
7018;BME280;3549;42.162;24.726;2023-06-04T04:11:16;47605.56;;;-141.97;60.73
7018;BME280;3549;42.162;24.726;2023-06-04T04:13:42;47684.38;;;-141.97;61.00
7018;BME280;3549;42.162;24.726;2023-06-04T04:16:07;47751.66;;;-141.97;60.96
7018;BME280;3549;42.162;24.726;2023-06-04T04:18:36;47607.50;;;-141.97;60.60
7018;BME280;3549;42.162;24.726;2023-06-04T04:21:03;47576.75;;;-141.97;60.94
7018;BME280;3549;42.162;24.726;2023-06-04T04:23:29;47594.03;;;-141.97;61.32
7018;BME280;3549;42.162;24.726;2023-06-04T04:25:55;47549.84;;;-141.97;60.73
7018;BME280;3549;42.162;24.726;2023-06-04T04:28:24;47515.22;;;-141.97;60.75
7018;BME280;3549;42.162;24.726;2023-06-04T04:30:54;47405.69;;;-141.97;60.51
7018;BME280;3549;42.162;24.726;2023-06-04T04:33:21;47776.63;;;-141.97;60.55
7018;BME280;3549;42.162;24.726;2023-06-04T04:35:50;47559.44;;;-141.97;60.70
7018;BME280;3549;42.162;24.726;2023-06-04T04:38:15;47740.13;;;-141.97;60.18
7018;BME280;3549;42.162;24.726;2023-06-04T04:40:42;47661.31;;;-141.97;60.09
7018;BME280;3549;42.162;24.726;2023-06-04T04:43:07;47586.34;;;-141.97;59.48
7018;BME280;3549;42.162;24.726;2023-06-04T04:45:33;47446.03;;;-141.97;59.51
7018;BME280;3549;42.162;24.726;2023-06-04T04:47:58;47538.28;;;-141.97;59.62
7018;BME280;3549;42.162;24.726;2023-06-04T04:50:24;47547.91;;;-141.97;59.44
7018;BME280;3549;42.162;24.726;2023-06-04T04:52:49;47422.97;;;-141.97;60.19
7018;BME280;3549;42.162;24.726;2023-06-04T04:55:14;47582.50;;;-141.97;59.64
7018;BME280;3549;42.162;24.726;2023-06-04T04:57:40;47586.34;;;-141.97;59.39
7018;BME280;3549;42.162;24.726;2023-06-04T05:00:06;47434.50;;;-141.97;61.57
7018;BME280;3549;42.162;24.726;2023-06-04T05:02:34;47588.28;;;-141.97;61.96
7018;BME280;3549;42.162;24.726;2023-06-04T05:05:00;47586.34;;;-141.97;61.77
7018;BME280;3549;42.162;24.726;2023-06-04T05:07:26;47547.91;;;-141.97;61.57
7018;BME280;3549;42.162;24.726;2023-06-04T05:09:51;47582.50;;;-141.97;61.13
7018;BME280;3549;42.162;24.726;2023-06-04T05:12:17;47597.88;;;-141.97;59.86
7018;BME280;3549;42.162;24.726;2023-06-04T05:14:42;47595.97;;;-141.97;59.16
7018;BME280;3549;42.162;24.726;2023-06-04T05:17:08;47499.84;;;-141.97;59.07
7018;BME280;3549;42.162;24.726;2023-06-04T05:19:34;47497.94;;;-141.97;58.44
7018;BME280;3549;42.162;24.726;2023-06-04T05:21:59;47711.28;;;-141.97;57.69
7018;BME280;3549;42.162;24.726;2023-06-04T05:24:28;47526.75;;;-141.97;57.70
7018;BME280;3549;42.162;24.726;2023-06-04T05:26:54;47572.91;;;-141.97;58.30
7018;BME280;3549;42.162;24.726;2023-06-04T05:29:20;47584.44;;;-141.97;58.33
7018;BME280;3549;42.162;24.726;2023-06-04T05:31:45;47588.28;;;-141.97;58.38
7018;BME280;3549;42.162;24.726;2023-06-04T05:34:11;47692.06;;;-141.97;58.10
7018;BME280;3549;42.162;24.726;2023-06-04T05:36:40;47549.84;;;-141.97;56.85
7018;BME280;3549;42.162;24.726;2023-06-04T05:39:05;47565.22;;;-141.97;55.78
7018;BME280;3549;42.162;24.726;2023-06-04T05:41:31;47461.41;;;-141.97;56.12
7018;BME280;3549;42.162;24.726;2023-06-04T05:43:57;47557.53;;;-141.97;55.90
7018;BME280;3549;42.162;24.726;2023-06-04T05:46:22;47544.06;;;-141.97;56.02
7018;BME280;3549;42.162;24.726;2023-06-04T05:48:48;47772.78;;;-141.97;56.18
7018;BME280;3549;42.162;24.726;2023-06-04T05:51:13;47542.16;;;-141.97;55.84
7018;BME280;3549;42.162;24.726;2023-06-04T05:53:39;47536.38;;;-141.97;56.22
7018;BME280;3549;42.162;24.726;2023-06-04T05:56:05;47521.00;;;-141.97;56.33
7018;BME280;3549;42.162;24.726;2023-06-04T05:58:33;47544.06;;;-141.97;56.31
7018;BME280;3549;42.162;24.726;2023-06-04T06:00:59;47595.97;;;-141.97;55.87
7018;BME280;3549;42.162;24.726;2023-06-04T06:03:25;47582.50;;;-141.97;55.11
7018;BME280;3549;42.162;24.726;2023-06-04T06:05:52;47592.13;;;-141.97;55.08
7018;BME280;3549;42.162;24.726;2023-06-04T06:08:19;47484.47;;;-141.97;54.63
7018;BME280;3549;42.162;24.726;2023-06-04T06:10:46;47561.38;;;-141.97;54.62
7018;BME280;3549;42.162;24.726;2023-06-04T06:13:12;47669.00;;;-141.97;54.49
7018;BME280;3549;42.162;24.726;2023-06-04T06:15:37;47684.38;;;-141.97;53.64
7018;BME280;3549;42.162;24.726;2023-06-04T06:18:03;47396.06;;;-141.97;53.01
7018;BME280;3549;42.162;24.726;2023-06-04T06:20:29;47530.59;;;-141.97;52.79
7018;BME280;3549;42.162;24.726;2023-06-04T06:22:54;47753.56;;;-141.97;53.10
7018;BME280;3549;42.162;24.726;2023-06-04T06:25:20;47507.53;;;-141.97;53.31
7018;BME280;3549;42.162;24.726;2023-06-04T06:27:45;47607.50;;;-141.97;53.45
7018;BME280;3549;42.162;24.726;2023-06-04T06:30:11;47574.81;;;-141.97;53.10
7018;BME280;3549;42.162;24.726;2023-06-04T06:32:37;47544.06;;;-141.97;53.07
7018;BME280;3549;42.162;24.726;2023-06-04T06:35:03;47505.63;;;-141.97;52.89
7018;BME280;3549;42.162;24.726;2023-06-04T06:37:29;47522.91;;;-141.97;52.37
7018;BME280;3549;42.162;24.726;2023-06-04T06:39:54;47546.00;;;-141.97;52.58
7018;BME280;3549;42.162;24.726;2023-06-04T06:42:19;47584.44;;;-141.97;52.67
7018;BME280;3549;42.162;24.726;2023-06-04T06:44:45;47536.38;;;-141.97;52.54
7018;BME280;3549;42.162;24.726;2023-06-04T06:47:10;47474.88;;;-141.97;53.06
7018;BME280;3549;42.162;24.726;2023-06-04T06:49:39;47755.50;;;-141.97;53.27
7018;BME280;3549;42.162;24.726;2023-06-04T06:52:05;47540.22;;;-141.97;52.52
7018;BME280;3549;42.162;24.726;2023-06-04T06:54:30;47553.69;;;-141.97;50.88
7018;BME280;3549;42.162;24.726;2023-06-04T06:56:56;47759.34;;;-141.97;49.77
7018;BME280;3549;42.162;24.726;2023-06-04T06:59:21;47515.22;;;-141.97;50.01
7018;BME280;3549;42.162;24.726;2023-06-04T07:01:46;47522.91;;;-141.97;50.35
7018;BME280;3549;42.162;24.726;2023-06-04T07:04:12;47536.38;;;-141.97;49.60
7018;BME280;3549;42.162;24.726;2023-06-04T07:06:38;47482.56;;;-141.97;49.33
7018;BME280;3549;42.162;24.726;2023-06-04T07:09:03;47421.06;;;-141.97;50.39
7018;BME280;3549;42.162;24.726;2023-06-04T07:11:31;47636.31;;;-141.97;50.09
7018;BME280;3549;42.162;24.726;2023-06-04T07:13:56;47503.69;;;-141.97;50.58
7018;BME280;3549;42.162;24.726;2023-06-04T07:16:22;47549.84;;;-141.97;51.94
7018;BME280;3549;42.162;24.726;2023-06-04T07:18:48;47436.44;;;-141.97;51.59
7018;BME280;3549;42.162;24.726;2023-06-04T07:21:15;47530.59;;;-141.97;51.64
7018;BME280;3549;42.162;24.726;2023-06-04T07:23:41;47688.22;;;-141.97;51.74
7018;BME280;3549;42.162;24.726;2023-06-04T07:26:06;47692.06;;;-141.97;50.92
7018;BME280;3549;42.162;24.726;2023-06-04T07:28:32;47538.28;;;-141.97;51.19
7018;BME280;3549;42.162;24.726;2023-06-04T07:30:57;47574.81;;;-141.97;52.37
7018;BME280;3549;42.162;24.726;2023-06-04T07:33:24;47570.97;;;-141.97;53.69
7018;BME280;3549;42.162;24.726;2023-06-04T07:35:49;47780.47;;;-141.97;54.37
7018;BME280;3549;42.162;24.726;2023-06-04T07:38:15;47534.44;;;-141.97;55.32
7018;BME280;3549;42.162;24.726;2023-06-04T07:40:41;47565.22;;;-141.97;55.48
7018;BME280;3549;42.162;24.726;2023-06-04T07:43:06;47432.59;;;-141.97;55.59
7018;BME280;3549;42.162;24.726;2023-06-04T07:45:31;47519.06;;;-141.97;55.59
7018;BME280;3549;42.162;24.726;2023-06-04T07:47:57;47572.91;;;-141.97;55.17
7018;BME280;3549;42.162;24.726;2023-06-04T07:50:22;47503.69;;;-141.97;55.38
7018;BME280;3549;42.162;24.726;2023-06-04T07:52:48;47572.91;;;-141.97;55.87
7018;BME280;3549;42.162;24.726;2023-06-04T07:55:13;47446.03;;;-141.97;56.77
7018;BME280;3549;42.162;24.726;2023-06-04T07:57:39;47557.53;;;-141.97;56.78
7018;BME280;3549;42.162;24.726;2023-06-04T08:00:06;47499.84;;;-141.97;57.26
7018;BME280;3549;42.162;24.726;2023-06-04T08:02:33;47565.22;;;-141.97;57.85
7018;BME280;3549;42.162;24.726;2023-06-04T08:04:58;47561.38;;;-141.97;58.21
7018;BME280;3549;42.162;24.726;2023-06-04T08:07:23;47599.81;;;-141.97;58.56
7018;BME280;3549;42.162;24.726;2023-06-04T08:09:49;47478.72;;;-141.97;57.26
7018;BME280;3549;42.162;24.726;2023-06-04T08:12:15;47574.81;;;-141.97;57.64
7018;BME280;3549;42.162;24.726;2023-06-04T08:14:41;47801.63;;;-141.97;58.01
7018;BME280;3549;42.162;24.726;2023-06-04T08:17:07;47549.84;;;-141.97;57.64
7018;BME280;3549;42.162;24.726;2023-06-04T08:19:32;47569.06;;;-141.97;57.66
7018;BME280;3549;42.162;24.726;2023-06-04T08:21:58;47517.16;;;-141.97;56.15
7018;BME280;3549;42.162;24.726;2023-06-04T08:24:23;47540.22;;;-141.97;54.22
7018;BME280;3549;42.162;24.726;2023-06-04T08:26:48;47553.69;;;-141.97;55.32
7018;BME280;3549;42.162;24.726;2023-06-04T08:29:15;47507.53;;;-141.97;53.92
7018;BME280;3549;42.162;24.726;2023-06-04T08:31:41;47522.91;;;-141.97;54.29
7018;BME280;3549;42.162;24.726;2023-06-04T08:34:06;47559.44;;;-141.97;54.19
7018;BME280;3549;42.162;24.726;2023-06-04T08:36:31;47376.84;;;-141.97;54.69
7018;BME280;3549;42.162;24.726;2023-06-04T08:39:00;47553.69;;;-141.97;54.95
7018;BME280;3549;42.162;24.726;2023-06-04T08:41:34;47549.84;;;-141.97;54.25
7018;BME280;3549;42.162;24.726;2023-06-04T08:44:05;47761.25;;;-141.97;52.98
7018;BME280;3549;42.162;24.726;2023-06-04T08:46:32;47522.91;;;-141.97;52.08
7018;BME280;3549;42.162;24.726;2023-06-04T08:49:00;47494.09;;;-141.97;49.71
7018;BME280;3549;42.162;24.726;2023-06-04T08:51:31;47467.19;;;-141.97;50.04
7018;BME280;3549;42.162;24.726;2023-06-04T08:53:58;47653.63;;;-141.97;50.68
7018;BME280;3549;42.162;24.726;2023-06-04T08:56:25;47569.06;;;-141.97;52.03
7018;BME280;3549;42.162;24.726;2023-06-04T08:58:51;47542.16;;;-141.97;51.30
7018;BME280;3549;42.162;24.726;2023-06-04T09:01:17;47546.00;;;-141.97;50.92
7018;BME280;3549;42.162;24.726;2023-06-04T09:03:42;47465.25;;;-141.97;52.78
7018;BME280;3549;42.162;24.726;2023-06-04T09:06:08;47557.53;;;-141.97;53.33
7018;BME280;3549;42.162;24.726;2023-06-04T09:08:36;47549.84;;;-141.97;52.12
7018;BME280;3549;42.162;24.726;2023-06-04T09:11:08;47542.16;;;-141.97;51.94
7018;BME280;3549;42.162;24.726;2023-06-04T09:13:35;47532.53;;;-141.97;50.75
7018;BME280;3549;42.162;24.726;2023-06-04T09:16:02;47582.50;;;-141.97;50.32
7018;BME280;3549;42.162;24.726;2023-06-04T09:18:29;47534.44;;;-141.97;50.49
7018;BME280;3549;42.162;24.726;2023-06-04T09:21:04;47718.97;;;-141.97;49.82
7018;BME280;3549;42.162;24.726;2023-06-04T09:23:31;47374.94;;;-141.97;50.14
7018;BME280;3549;42.162;24.726;2023-06-04T09:26:06;47522.91;;;-141.97;49.81
7018;BME280;3549;42.162;24.726;2023-06-04T09:28:32;47561.38;;;-141.97;49.36
7018;BME280;3549;42.162;24.726;2023-06-04T09:30:58;47507.53;;;-141.97;48.99
7018;BME280;3549;42.162;24.726;2023-06-04T09:33:23;47519.06;;;-141.97;49.15
7018;BME280;3549;42.162;24.726;2023-06-04T09:35:55;47511.38;;;-141.97;49.33
7018;BME280;3549;42.162;24.726;2023-06-04T09:38:21;47507.53;;;-141.97;51.07
7018;BME280;3549;42.162;24.726;2023-06-04T09:40:47;47703.59;;;-141.97;50.09
7018;BME280;3549;42.162;24.726;2023-06-04T09:43:21;47526.75;;;-141.97;50.17
7018;BME280;3549;42.162;24.726;2023-06-04T09:45:48;47446.03;;;-141.97;49.48
7018;BME280;3549;42.162;24.726;2023-06-04T09:48:20;47557.53;;;-141.97;50.75
7018;BME280;3549;42.162;24.726;2023-06-04T09:50:48;47407.59;;;-141.97;50.63
7018;BME280;3549;42.162;24.726;2023-06-04T09:53:18;47557.53;;;-141.97;50.09
7018;BME280;3549;42.162;24.726;2023-06-04T09:55:56;47355.72;;;-141.97;48.81
7018;BME280;3549;42.162;24.726;2023-06-04T09:58:24;47642.09;;;-141.97;47.83
7018;BME280;3549;42.162;24.726;2023-06-04T10:00:52;47499.84;;;-141.97;46.92
7018;BME280;3549;42.162;24.726;2023-06-04T10:03:20;47432.59;;;-141.97;46.81
7018;BME280;3549;42.162;24.726;2023-06-04T10:05:52;47496.00;;;-141.97;46.33
7018;BME280;3549;42.162;24.726;2023-06-04T10:08:21;47547.91;;;-141.97;46.50
7018;BME280;3549;42.162;24.726;2023-06-04T10:10:49;47765.09;;;-141.97;46.67
7018;BME280;3549;42.162;24.726;2023-06-04T10:13:19;47507.53;;;-141.97;46.45
7018;BME280;3549;42.162;24.726;2023-06-04T10:15:46;47538.28;;;-141.97;47.14
7018;BME280;3549;42.162;24.726;2023-06-04T10:18:13;47549.84;;;-141.97;45.92
7018;BME280;3549;42.162;24.726;2023-06-04T10:20:39;47649.78;;;-141.97;45.25
7018;BME280;3549;42.162;24.726;2023-06-04T10:23:06;47434.50;;;-141.97;45.92
7018;BME280;3549;42.162;24.726;2023-06-04T10:25:34;47492.16;;;-141.97;45.35
7018;BME280;3549;42.162;24.726;2023-06-04T10:28:01;47507.53;;;-141.97;44.30
7018;BME280;3549;42.162;24.726;2023-06-04T10:30:26;47703.59;;;-141.97;42.69
7018;BME280;3549;42.162;24.726;2023-06-04T10:32:52;47546.00;;;-141.97;42.72
7018;BME280;3549;42.162;24.726;2023-06-04T10:35:29;47476.78;;;-141.97;42.11
7018;BME280;3549;42.162;24.726;2023-06-04T10:38:09;47513.31;;;-141.97;43.50
7018;BME280;3549;42.162;24.726;2023-06-04T10:40:38;47549.84;;;-141.97;43.89
7018;BME280;3549;42.162;24.726;2023-06-04T10:43:11;47417.22;;;-141.97;44.12
7018;BME280;3549;42.162;24.726;2023-06-04T10:45:37;47472.94;;;-141.97;43.18
7018;BME280;3549;42.162;24.726;2023-06-04T10:48:11;47532.53;;;-141.97;38.58
7018;BME280;3549;42.162;24.726;2023-06-04T10:50:51;47507.53;;;-141.97;41.06
7018;BME280;3549;42.162;24.726;2023-06-04T10:53:17;47557.53;;;-141.97;38.32
7018;BME280;3549;42.162;24.726;2023-06-04T10:55:45;47776.63;;;-141.97;42.05
7018;BME280;3549;42.162;24.726;2023-06-04T10:58:11;47361.47;;;-141.97;42.67
7018;BME280;3549;42.162;24.726;2023-06-04T11:00:46;47496.00;;;-141.97;43.07
7018;BME280;3549;42.162;24.726;2023-06-04T11:03:14;47682.47;;;-141.97;45.00
7018;BME280;3549;42.162;24.726;2023-06-04T11:05:40;47507.53;;;-141.97;49.25
7018;BME280;3549;42.162;24.726;2023-06-04T11:08:06;47505.63;;;-141.97;49.78
7018;BME280;3549;42.162;24.726;2023-06-04T11:10:34;47538.28;;;-141.97;50.38
7018;BME280;3549;42.162;24.726;2023-06-04T11:13:00;47542.16;;;-141.97;49.39
7018;BME280;3549;42.162;24.726;2023-06-04T11:15:25;47430.66;;;-141.97;50.87
7018;BME280;3549;42.162;24.726;2023-06-04T11:17:57;47476.78;;;-141.97;50.70
7018;BME280;3549;42.162;24.726;2023-06-04T11:20:25;47519.06;;;-141.97;48.88
7018;BME280;3549;42.162;24.726;2023-06-04T11:23:00;47713.22;;;-141.97;48.36
7018;BME280;3549;42.162;24.726;2023-06-04T11:25:28;47507.53;;;-141.97;47.00
7018;BME280;3549;42.162;24.726;2023-06-04T11:27:56;47457.56;;;-141.97;48.61
7018;BME280;3549;42.162;24.726;2023-06-04T11:30:22;47499.84;;;-141.97;48.05
7018;BME280;3549;42.162;24.726;2023-06-04T11:32:48;47486.41;;;-141.97;45.98
7018;BME280;3549;42.162;24.726;2023-06-04T11:35:14;47507.53;;;-141.97;46.02
7018;BME280;3549;42.162;24.726;2023-06-04T11:37:53;47532.53;;;-141.97;44.60
7018;BME280;3549;42.162;24.726;2023-06-04T11:40:19;47592.13;;;-141.97;41.21
7018;BME280;3549;42.162;24.726;2023-06-04T11:42:51;47465.25;;;-141.97;38.86
7018;BME280;3549;42.162;24.726;2023-06-04T11:45:20;47492.16;;;-141.97;39.22
7018;BME280;3549;42.162;24.726;2023-06-04T11:47:53;47634.41;;;-141.97;38.59
7018;BME280;3549;42.162;24.726;2023-06-04T11:50:21;47446.03;;;-141.97;39.06
7018;BME280;3549;42.162;24.726;2023-06-04T11:52:47;47424.91;;;-141.97;36.46
7018;BME280;3549;42.162;24.726;2023-06-04T11:55:13;47369.16;;;-141.97;36.52
7018;BME280;3549;42.162;24.726;2023-06-04T11:57:40;47242.31;;;-141.97;36.27
7018;BME280;3549;42.162;24.726;2023-06-04T12:00:07;47244.25;;;-141.97;36.31
7018;BME280;3549;42.162;24.726;2023-06-04T12:02:48;47384.53;;;-141.97;34.46
7018;BME280;3549;42.162;24.726;2023-06-04T12:05:15;47380.69;;;-141.97;34.04
7018;BME280;3549;42.162;24.726;2023-06-04T12:07:43;47419.13;;;-141.97;34.45
7018;BME280;3549;42.162;24.726;2023-06-04T12:10:09;47421.06;;;-141.97;36.02
7018;BME280;3549;42.162;24.726;2023-06-04T12:12:37;47447.97;;;-141.97;36.82
7018;BME280;3549;42.162;24.726;2023-06-04T12:15:03;47676.69;;;-141.97;34.06
7018;BME280;3549;42.162;24.726;2023-06-04T12:17:31;47597.88;;;-141.97;33.93
7018;BME280;3549;42.162;24.726;2023-06-04T12:19:56;47380.69;;;-141.97;33.45
7018;BME280;3549;42.162;24.726;2023-06-04T12:22:24;47388.38;;;-141.97;33.55
7018;BME280;3549;42.162;24.726;2023-06-04T12:24:51;47346.09;;;-141.97;33.76
7018;BME280;3549;42.162;24.726;2023-06-04T12:27:20;47336.50;;;-141.97;33.08
7018;BME280;3549;42.162;24.726;2023-06-04T12:30:02;47603.66;;;-141.97;33.34
7018;BME280;3549;42.162;24.726;2023-06-04T12:32:28;47324.97;;;-141.97;33.04
7018;BME280;3549;42.162;24.726;2023-06-04T12:34:54;47269.22;;;-141.97;32.63
7018;BME280;3549;42.162;24.726;2023-06-04T12:37:23;47338.41;;;-141.97;33.78
7018;BME280;3549;42.162;24.726;2023-06-04T12:39:53;47373.00;;;-141.97;35.86
7018;BME280;3549;42.162;24.726;2023-06-04T12:42:19;47161.59;;;-141.97;35.09
7018;BME280;3549;42.162;24.726;2023-06-04T12:44:45;47580.59;;;-141.97;33.75
7018;BME280;3549;42.162;24.726;2023-06-04T12:47:11;47403.75;;;-141.97;34.21
7018;BME280;3549;42.162;24.726;2023-06-04T12:49:37;47476.78;;;-141.97;34.21
7018;BME280;3549;42.162;24.726;2023-06-04T12:52:03;47474.88;;;-141.97;34.21
7018;BME280;3549;42.162;24.726;2023-06-04T12:54:29;47428.75;;;-141.97;35.13
7018;BME280;3549;42.162;24.726;2023-06-04T12:56:56;47367.25;;;-141.97;34.45